sensor_id;sensor_type;location;lat;lon;timestamp;temperature;humidity
75430;DHT22;64127;51.488;5.462;2023-02-26T00:01:36;3.90;91.20
75430;DHT22;64127;51.488;5.462;2023-02-26T00:04:09;3.80;91.40
75430;DHT22;64127;51.488;5.462;2023-02-26T00:06:41;3.80;91.50
75430;DHT22;64127;51.488;5.462;2023-02-26T00:09:27;3.80;91.60
75430;DHT22;64127;51.488;5.462;2023-02-26T00:12:00;3.80;91.70
75430;DHT22;64127;51.488;5.462;2023-02-26T00:14:32;3.80;91.70
75430;DHT22;64127;51.488;5.462;2023-02-26T00:19:44;3.80;92.00
75430;DHT22;64127;51.488;5.462;2023-02-26T00:22:17;3.70;92.10
75430;DHT22;64127;51.488;5.462;2023-02-26T00:24:49;3.70;92.20
75430;DHT22;64127;51.488;5.462;2023-02-26T00:27:21;3.70;92.30
75430;DHT22;64127;51.488;5.462;2023-02-26T00:29:53;3.80;92.50
75430;DHT22;64127;51.488;5.462;2023-02-26T00:32:25;3.80;92.50
75430;DHT22;64127;51.488;5.462;2023-02-26T00:34:58;3.80;92.60
75430;DHT22;64127;51.488;5.462;2023-02-26T00:43:06;3.90;92.80
75430;DHT22;64127;51.488;5.462;2023-02-26T00:45:57;3.90;92.90
75430;DHT22;64127;51.488;5.462;2023-02-26T00:54:29;4.00;93.30
75430;DHT22;64127;51.488;5.462;2023-02-26T00:57:02;4.10;93.30
75430;DHT22;64127;51.488;5.462;2023-02-26T00:59:36;4.10;93.40
75430;DHT22;64127;51.488;5.462;2023-02-26T01:02:08;4.10;93.40
75430;DHT22;64127;51.488;5.462;2023-02-26T01:04:40;4.10;93.50
75430;DHT22;64127;51.488;5.462;2023-02-26T01:07:13;4.10;93.60
75430;DHT22;64127;51.488;5.462;2023-02-26T01:09:47;4.10;93.70
75430;DHT22;64127;51.488;5.462;2023-02-26T01:12:20;4.10;93.80
75430;DHT22;64127;51.488;5.462;2023-02-26T01:14:52;4.10;93.90
75430;DHT22;64127;51.488;5.462;2023-02-26T01:17:37;4.10;94.00
75430;DHT22;64127;51.488;5.462;2023-02-26T01:20:18;4.10;94.10
75430;DHT22;64127;51.488;5.462;2023-02-26T01:22:58;4.00;94.00
75430;DHT22;64127;51.488;5.462;2023-02-26T01:25:56;3.90;94.10
75430;DHT22;64127;51.488;5.462;2023-02-26T01:28:30;4.00;94.10
75430;DHT22;64127;51.488;5.462;2023-02-26T01:31:04;3.90;94.10
75430;DHT22;64127;51.488;5.462;2023-02-26T01:33:52;3.90;94.20
75430;DHT22;64127;51.488;5.462;2023-02-26T01:36:32;3.90;94.40
75430;DHT22;64127;51.488;5.462;2023-02-26T01:39:19;3.80;94.40
75430;DHT22;64127;51.488;5.462;2023-02-26T01:41:59;3.80;94.50
75430;DHT22;64127;51.488;5.462;2023-02-26T01:47:56;3.70;94.60
75430;DHT22;64127;51.488;5.462;2023-02-26T01:50:36;3.70;94.70
75430;DHT22;64127;51.488;5.462;2023-02-26T01:53:18;3.70;94.80
75430;DHT22;64127;51.488;5.462;2023-02-26T01:56:00;3.70;94.90
75430;DHT22;64127;51.488;5.462;2023-02-26T01:58:37;3.60;94.90
75430;DHT22;64127;51.488;5.462;2023-02-26T02:01:10;3.60;95.00
75430;DHT22;64127;51.488;5.462;2023-02-26T02:03:42;3.50;95.00
75430;DHT22;64127;51.488;5.462;2023-02-26T02:06:19;3.50;95.10
75430;DHT22;64127;51.488;5.462;2023-02-26T02:08:53;3.50;95.20
75430;DHT22;64127;51.488;5.462;2023-02-26T02:11:25;3.40;95.30
75430;DHT22;64127;51.488;5.462;2023-02-26T02:17:06;3.40;95.50
75430;DHT22;64127;51.488;5.462;2023-02-26T02:26:00;3.30;95.70
75430;DHT22;64127;51.488;5.462;2023-02-26T02:32:09;3.20;95.90
75430;DHT22;64127;51.488;5.462;2023-02-26T02:34:51;3.20;95.90
75430;DHT22;64127;51.488;5.462;2023-02-26T02:38:37;3.20;95.90
75430;DHT22;64127;51.488;5.462;2023-02-26T02:40:45;3.20;96.00
75430;DHT22;64127;51.488;5.462;2023-02-26T02:43:24;3.20;96.00
75430;DHT22;64127;51.488;5.462;2023-02-26T02:46:06;3.20;96.00
75430;DHT22;64127;51.488;5.462;2023-02-26T02:48:46;3.20;96.00
75430;DHT22;64127;51.488;5.462;2023-02-26T02:51:32;3.10;96.00
75430;DHT22;64127;51.488;5.462;2023-02-26T02:57:10;3.10;96.00
75430;DHT22;64127;51.488;5.462;2023-02-26T03:00:13;3.10;96.00
75430;DHT22;64127;51.488;5.462;2023-02-26T03:03:02;3.10;96.00
75430;DHT22;64127;51.488;5.462;2023-02-26T03:05:42;3.10;96.00
75430;DHT22;64127;51.488;5.462;2023-02-26T03:08:21;3.10;96.00
75430;DHT22;64127;51.488;5.462;2023-02-26T03:10:57;3.10;96.00
75430;DHT22;64127;51.488;5.462;2023-02-26T03:13:29;3.00;95.90
75430;DHT22;64127;51.488;5.462;2023-02-26T03:25:11;2.90;95.90
75430;DHT22;64127;51.488;5.462;2023-02-26T03:27:54;2.90;96.00
75430;DHT22;64127;51.488;5.462;2023-02-26T03:30:37;2.90;96.10
75430;DHT22;64127;51.488;5.462;2023-02-26T03:33:21;2.80;95.90
75430;DHT22;64127;51.488;5.462;2023-02-26T03:35:59;2.90;96.00
75430;DHT22;64127;51.488;5.462;2023-02-26T03:41:23;2.80;96.10
75430;DHT22;64127;51.488;5.462;2023-02-26T03:44:04;2.80;96.10
75430;DHT22;64127;51.488;5.462;2023-02-26T03:46:44;2.70;96.00
75430;DHT22;64127;51.488;5.462;2023-02-26T03:49:25;2.70;96.10
75430;DHT22;64127;51.488;5.462;2023-02-26T03:52:02;2.70;96.10
75430;DHT22;64127;51.488;5.462;2023-02-26T03:54:47;2.70;96.20
75430;DHT22;64127;51.488;5.462;2023-02-26T03:57:25;2.70;96.20
75430;DHT22;64127;51.488;5.462;2023-02-26T03:59:57;2.60;96.20
75430;DHT22;64127;51.488;5.462;2023-02-26T04:02:37;2.60;96.20
75430;DHT22;64127;51.488;5.462;2023-02-26T04:05:22;2.60;96.20
75430;DHT22;64127;51.488;5.462;2023-02-26T04:07:57;2.60;96.20
75430;DHT22;64127;51.488;5.462;2023-02-26T04:10:39;2.60;96.30
75430;DHT22;64127;51.488;5.462;2023-02-26T04:13:33;2.60;96.30
75430;DHT22;64127;51.488;5.462;2023-02-26T04:16:06;2.60;96.30
75430;DHT22;64127;51.488;5.462;2023-02-26T04:18:38;2.60;96.30
75430;DHT22;64127;51.488;5.462;2023-02-26T04:21:12;2.50;96.60
75430;DHT22;64127;51.488;5.462;2023-02-26T04:23:46;2.50;96.40
75430;DHT22;64127;51.488;5.462;2023-02-26T04:26:18;2.50;96.40
75430;DHT22;64127;51.488;5.462;2023-02-26T04:28:50;2.50;96.40
75430;DHT22;64127;51.488;5.462;2023-02-26T04:31:22;2.50;96.50
75430;DHT22;64127;51.488;5.462;2023-02-26T04:33:54;2.50;96.50
75430;DHT22;64127;51.488;5.462;2023-02-26T04:36:26;2.50;96.60
75430;DHT22;64127;51.488;5.462;2023-02-26T04:38:58;2.40;96.50
75430;DHT22;64127;51.488;5.462;2023-02-26T04:41:30;2.40;96.50
75430;DHT22;64127;51.488;5.462;2023-02-26T04:44:03;2.40;96.60
75430;DHT22;64127;51.488;5.462;2023-02-26T04:46:36;2.40;96.50
75430;DHT22;64127;51.488;5.462;2023-02-26T04:49:08;2.40;96.60
75430;DHT22;64127;51.488;5.462;2023-02-26T04:51:40;2.40;96.60
75430;DHT22;64127;51.488;5.462;2023-02-26T04:54:12;2.30;96.60
75430;DHT22;64127;51.488;5.462;2023-02-26T04:56:44;2.30;96.70
75430;DHT22;64127;51.488;5.462;2023-02-26T04:59:16;2.30;96.70
75430;DHT22;64127;51.488;5.462;2023-02-26T05:01:48;2.30;96.60
75430;DHT22;64127;51.488;5.462;2023-02-26T05:04:20;2.30;96.70
75430;DHT22;64127;51.488;5.462;2023-02-26T05:06:52;2.30;96.60
75430;DHT22;64127;51.488;5.462;2023-02-26T05:09:24;2.20;96.50
75430;DHT22;64127;51.488;5.462;2023-02-26T05:11:57;2.20;96.50
75430;DHT22;64127;51.488;5.462;2023-02-26T05:14:29;2.20;96.50
75430;DHT22;64127;51.488;5.462;2023-02-26T05:17:01;2.20;96.50
75430;DHT22;64127;51.488;5.462;2023-02-26T05:19:33;2.20;96.50
75430;DHT22;64127;51.488;5.462;2023-02-26T05:22:05;2.20;96.50
75430;DHT22;64127;51.488;5.462;2023-02-26T05:24:37;2.20;96.50
75430;DHT22;64127;51.488;5.462;2023-02-26T05:27:09;2.20;96.50
75430;DHT22;64127;51.488;5.462;2023-02-26T05:29:41;2.20;96.40
75430;DHT22;64127;51.488;5.462;2023-02-26T05:32:15;2.10;96.40
75430;DHT22;64127;51.488;5.462;2023-02-26T05:34:47;2.10;96.30
75430;DHT22;64127;51.488;5.462;2023-02-26T05:37:19;2.10;96.30
75430;DHT22;64127;51.488;5.462;2023-02-26T05:39:51;2.10;96.30
75430;DHT22;64127;51.488;5.462;2023-02-26T05:42:23;2.10;96.30
75430;DHT22;64127;51.488;5.462;2023-02-26T05:44:55;2.10;96.20
75430;DHT22;64127;51.488;5.462;2023-02-26T05:47:28;2.10;96.10
75430;DHT22;64127;51.488;5.462;2023-02-26T05:50:00;2.10;96.20
75430;DHT22;64127;51.488;5.462;2023-02-26T05:52:33;2.10;96.10
75430;DHT22;64127;51.488;5.462;2023-02-26T05:55:06;2.00;96.00
75430;DHT22;64127;51.488;5.462;2023-02-26T05:57:38;2.10;96.00
75430;DHT22;64127;51.488;5.462;2023-02-26T06:00:11;2.00;95.90
75430;DHT22;64127;51.488;5.462;2023-02-26T06:02:44;2.00;95.90
75430;DHT22;64127;51.488;5.462;2023-02-26T06:05:16;2.00;95.90
75430;DHT22;64127;51.488;5.462;2023-02-26T06:07:48;2.00;95.90
75430;DHT22;64127;51.488;5.462;2023-02-26T06:10:21;2.00;95.90
75430;DHT22;64127;51.488;5.462;2023-02-26T06:12:53;2.00;95.80
75430;DHT22;64127;51.488;5.462;2023-02-26T06:15:25;2.00;95.80
75430;DHT22;64127;51.488;5.462;2023-02-26T06:17:57;2.00;95.80
75430;DHT22;64127;51.488;5.462;2023-02-26T06:20:29;2.00;95.80
75430;DHT22;64127;51.488;5.462;2023-02-26T06:23:01;2.00;95.80
75430;DHT22;64127;51.488;5.462;2023-02-26T06:25:33;2.00;95.50
75430;DHT22;64127;51.488;5.462;2023-02-26T06:28:05;2.00;95.50
75430;DHT22;64127;51.488;5.462;2023-02-26T06:30:37;2.00;95.50
75430;DHT22;64127;51.488;5.462;2023-02-26T06:33:09;2.00;95.50
75430;DHT22;64127;51.488;5.462;2023-02-26T06:35:41;2.00;95.40
75430;DHT22;64127;51.488;5.462;2023-02-26T06:38:13;2.00;95.40
75430;DHT22;64127;51.488;5.462;2023-02-26T06:40:46;1.90;95.30
75430;DHT22;64127;51.488;5.462;2023-02-26T06:43:19;1.90;95.30
75430;DHT22;64127;51.488;5.462;2023-02-26T06:45:51;1.90;95.20
75430;DHT22;64127;51.488;5.462;2023-02-26T06:48:23;1.90;95.20
75430;DHT22;64127;51.488;5.462;2023-02-26T06:50:56;1.90;95.20
75430;DHT22;64127;51.488;5.462;2023-02-26T06:53:28;1.90;95.20
75430;DHT22;64127;51.488;5.462;2023-02-26T06:56:00;1.90;95.20
75430;DHT22;64127;51.488;5.462;2023-02-26T06:58:32;1.90;95.20
75430;DHT22;64127;51.488;5.462;2023-02-26T07:01:05;1.90;95.20
75430;DHT22;64127;51.488;5.462;2023-02-26T07:03:37;2.00;95.20
75430;DHT22;64127;51.488;5.462;2023-02-26T07:06:10;2.00;95.10
75430;DHT22;64127;51.488;5.462;2023-02-26T07:08:57;2.00;95.10
75430;DHT22;64127;51.488;5.462;2023-02-26T07:11:29;2.00;95.10
75430;DHT22;64127;51.488;5.462;2023-02-26T07:14:01;2.10;95.10
75430;DHT22;64127;51.488;5.462;2023-02-26T07:16:33;2.10;95.10
75430;DHT22;64127;51.488;5.462;2023-02-26T07:19:05;2.20;95.10
75430;DHT22;64127;51.488;5.462;2023-02-26T07:21:37;2.30;95.00
75430;DHT22;64127;51.488;5.462;2023-02-26T07:24:09;2.30;94.90
75430;DHT22;64127;51.488;5.462;2023-02-26T07:26:41;2.40;94.90
75430;DHT22;64127;51.488;5.462;2023-02-26T07:29:13;2.50;94.80
75430;DHT22;64127;51.488;5.462;2023-02-26T07:31:45;2.50;94.70
75430;DHT22;64127;51.488;5.462;2023-02-26T07:34:17;2.60;94.60
75430;DHT22;64127;51.488;5.462;2023-02-26T07:36:49;2.70;94.60
75430;DHT22;64127;51.488;5.462;2023-02-26T07:39:21;2.70;94.50
75430;DHT22;64127;51.488;5.462;2023-02-26T07:41:53;2.80;94.40
75430;DHT22;64127;51.488;5.462;2023-02-26T07:44:25;2.90;94.20
75430;DHT22;64127;51.488;5.462;2023-02-26T07:46:57;3.00;94.10
75430;DHT22;64127;51.488;5.462;2023-02-26T07:49:29;3.00;94.00
75430;DHT22;64127;51.488;5.462;2023-02-26T07:52:03;3.10;94.00
75430;DHT22;64127;51.488;5.462;2023-02-26T07:54:38;3.30;93.80
75430;DHT22;64127;51.488;5.462;2023-02-26T07:57:10;3.40;93.80
75430;DHT22;64127;51.488;5.462;2023-02-26T07:59:42;3.60;93.60
75430;DHT22;64127;51.488;5.462;2023-02-26T08:02:14;3.70;93.70
75430;DHT22;64127;51.488;5.462;2023-02-26T08:04:47;3.80;93.10
75430;DHT22;64127;51.488;5.462;2023-02-26T08:07:19;4.00;93.00
75430;DHT22;64127;51.488;5.462;2023-02-26T08:09:51;4.10;92.70
75430;DHT22;64127;51.488;5.462;2023-02-26T08:12:23;4.30;92.60
75430;DHT22;64127;51.488;5.462;2023-02-26T08:14:55;4.40;92.40
75430;DHT22;64127;51.488;5.462;2023-02-26T08:17:27;4.50;92.20
75430;DHT22;64127;51.488;5.462;2023-02-26T08:20:00;4.70;92.10
75430;DHT22;64127;51.488;5.462;2023-02-26T08:22:31;4.90;91.90
75430;DHT22;64127;51.488;5.462;2023-02-26T08:25:04;5.00;91.70
75430;DHT22;64127;51.488;5.462;2023-02-26T08:27:38;5.20;91.50
75430;DHT22;64127;51.488;5.462;2023-02-26T08:30:10;5.30;91.30
75430;DHT22;64127;51.488;5.462;2023-02-26T08:32:43;5.40;91.10
75430;DHT22;64127;51.488;5.462;2023-02-26T08:35:16;5.50;90.90
75430;DHT22;64127;51.488;5.462;2023-02-26T08:37:49;5.60;90.80
75430;DHT22;64127;51.488;5.462;2023-02-26T08:40:21;5.80;90.70
75430;DHT22;64127;51.488;5.462;2023-02-26T08:42:53;5.90;90.40
75430;DHT22;64127;51.488;5.462;2023-02-26T08:45:25;6.00;90.40
75430;DHT22;64127;51.488;5.462;2023-02-26T08:47:57;6.10;90.10
75430;DHT22;64127;51.488;5.462;2023-02-26T08:50:29;6.20;89.90
75430;DHT22;64127;51.488;5.462;2023-02-26T08:53:01;6.20;89.60
75430;DHT22;64127;51.488;5.462;2023-02-26T08:55:33;6.30;89.50
75430;DHT22;64127;51.488;5.462;2023-02-26T08:58:05;6.40;89.30
75430;DHT22;64127;51.488;5.462;2023-02-26T09:00:38;6.50;88.80
75430;DHT22;64127;51.488;5.462;2023-02-26T09:03:10;6.60;88.50
75430;DHT22;64127;51.488;5.462;2023-02-26T09:05:43;6.70;88.20
75430;DHT22;64127;51.488;5.462;2023-02-26T09:08:15;6.80;87.80
75430;DHT22;64127;51.488;5.462;2023-02-26T09:10:47;6.90;87.50
75430;DHT22;64127;51.488;5.462;2023-02-26T09:13:19;7.00;86.80
75430;DHT22;64127;51.488;5.462;2023-02-26T09:15:51;7.00;86.50
75430;DHT22;64127;51.488;5.462;2023-02-26T09:18:23;7.00;86.10
75430;DHT22;64127;51.488;5.462;2023-02-26T09:20:55;7.10;86.00
75430;DHT22;64127;51.488;5.462;2023-02-26T09:23:27;7.20;86.00
75430;DHT22;64127;51.488;5.462;2023-02-26T09:26:00;7.20;85.40
75430;DHT22;64127;51.488;5.462;2023-02-26T09:28:32;7.30;84.80
75430;DHT22;64127;51.488;5.462;2023-02-26T09:31:04;7.30;84.30
75430;DHT22;64127;51.488;5.462;2023-02-26T09:33:38;7.30;83.80
75430;DHT22;64127;51.488;5.462;2023-02-26T09:36:10;7.30;83.00
75430;DHT22;64127;51.488;5.462;2023-02-26T09:38:42;7.20;82.80
75430;DHT22;64127;51.488;5.462;2023-02-26T09:41:21;7.30;82.60
75430;DHT22;64127;51.488;5.462;2023-02-26T09:55:44;7.50;80.50
75430;DHT22;64127;51.488;5.462;2023-02-26T09:58:33;7.70;80.30
75430;DHT22;64127;51.488;5.462;2023-02-26T10:09:57;8.00;77.00
75430;DHT22;64127;51.488;5.462;2023-02-26T10:12:38;7.90;77.00
75430;DHT22;64127;51.488;5.462;2023-02-26T10:15:22;8.00;77.00
75430;DHT22;64127;51.488;5.462;2023-02-26T10:18:03;8.10;76.40
75430;DHT22;64127;51.488;5.462;2023-02-26T10:21:03;8.30;75.90
75430;DHT22;64127;51.488;5.462;2023-02-26T10:23:48;8.40;74.80
75430;DHT22;64127;51.488;5.462;2023-02-26T10:26:31;8.40;74.20
75430;DHT22;64127;51.488;5.462;2023-02-26T10:32:48;8.60;72.40
75430;DHT22;64127;51.488;5.462;2023-02-26T10:35:31;8.60;72.20
75430;DHT22;64127;51.488;5.462;2023-02-26T10:38:17;8.80;72.10
75430;DHT22;64127;51.488;5.462;2023-02-26T10:41:14;8.90;71.50
75430;DHT22;64127;51.488;5.462;2023-02-26T10:44:02;9.20;70.90
75430;DHT22;64127;51.488;5.462;2023-02-26T10:47:14;9.30;70.40
75430;DHT22;64127;51.488;5.462;2023-02-26T10:50:08;9.50;69.40
75430;DHT22;64127;51.488;5.462;2023-02-26T10:52:44;9.60;68.50
75430;DHT22;64127;51.488;5.462;2023-02-26T10:58:17;9.80;67.90
75430;DHT22;64127;51.488;5.462;2023-02-26T11:00:58;9.90;66.90
75430;DHT22;64127;51.488;5.462;2023-02-26T11:03:35;9.80;66.50
75430;DHT22;64127;51.488;5.462;2023-02-26T11:06:19;9.80;66.00
75430;DHT22;64127;51.488;5.462;2023-02-26T11:08:55;9.80;65.50
75430;DHT22;64127;51.488;5.462;2023-02-26T11:11:45;9.90;65.30
75430;DHT22;64127;51.488;5.462;2023-02-26T11:14:25;10.00;64.10
75430;DHT22;64127;51.488;5.462;2023-02-26T11:17:05;10.20;63.80
75430;DHT22;64127;51.488;5.462;2023-02-26T11:19:49;10.20;63.10
75430;DHT22;64127;51.488;5.462;2023-02-26T11:22:31;10.20;62.30
75430;DHT22;64127;51.488;5.462;2023-02-26T11:25:05;10.10;61.40
75430;DHT22;64127;51.488;5.462;2023-02-26T11:27:38;9.90;62.40
75430;DHT22;64127;51.488;5.462;2023-02-26T11:30:16;10.00;61.30
75430;DHT22;64127;51.488;5.462;2023-02-26T11:32:52;10.00;61.30
75430;DHT22;64127;51.488;5.462;2023-02-26T11:35:27;10.20;61.30
75430;DHT22;64127;51.488;5.462;2023-02-26T11:38:00;10.40;60.70
75430;DHT22;64127;51.488;5.462;2023-02-26T11:40:37;10.40;60.10
75430;DHT22;64127;51.488;5.462;2023-02-26T11:43:15;10.50;59.60
75430;DHT22;64127;51.488;5.462;2023-02-26T11:46:02;10.60;59.40
75430;DHT22;64127;51.488;5.462;2023-02-26T11:51:15;10.60;58.60
75430;DHT22;64127;51.488;5.462;2023-02-26T11:53:53;10.60;58.20
75430;DHT22;64127;51.488;5.462;2023-02-26T11:56:38;10.80;58.20
75430;DHT22;64127;51.488;5.462;2023-02-26T11:59:24;10.90;57.50
75430;DHT22;64127;51.488;5.462;2023-02-26T12:02:02;10.90;56.80
75430;DHT22;64127;51.488;5.462;2023-02-26T12:04:45;10.80;56.00
75430;DHT22;64127;51.488;5.462;2023-02-26T12:07:21;10.60;55.70
75430;DHT22;64127;51.488;5.462;2023-02-26T12:09:53;10.50;55.60
75430;DHT22;64127;51.488;5.462;2023-02-26T12:19:11;10.40;55.50
75430;DHT22;64127;51.488;5.462;2023-02-26T12:22:05;10.50;55.60
75430;DHT22;64127;51.488;5.462;2023-02-26T12:34:48;10.80;55.00
75430;DHT22;64127;51.488;5.462;2023-02-26T12:37:54;10.80;54.70
75430;DHT22;64127;51.488;5.462;2023-02-26T12:40:43;10.90;54.40
75430;DHT22;64127;51.488;5.462;2023-02-26T13:02:44;11.80;52.90
75430;DHT22;64127;51.488;5.462;2023-02-26T13:08:35;12.00;52.20
75430;DHT22;64127;51.488;5.462;2023-02-26T13:11:23;12.10;52.00
75430;DHT22;64127;51.488;5.462;2023-02-26T13:20:21;12.40;51.90
75430;DHT22;64127;51.488;5.462;2023-02-26T13:23:10;12.50;51.60
75430;DHT22;64127;51.488;5.462;2023-02-26T13:25:54;12.50;51.40
75430;DHT22;64127;51.488;5.462;2023-02-26T13:28:44;12.70;51.20
75430;DHT22;64127;51.488;5.462;2023-02-26T13:34:49;13.10;50.40
75430;DHT22;64127;51.488;5.462;2023-02-26T13:37:44;13.10;50.40
75430;DHT22;64127;51.488;5.462;2023-02-26T13:48:49;13.00;50.00
75430;DHT22;64127;51.488;5.462;2023-02-26T13:51:36;12.80;49.90
75430;DHT22;64127;51.488;5.462;2023-02-26T14:02:29;13.70;49.50
75430;DHT22;64127;51.488;5.462;2023-02-26T14:05:26;14.10;49.00
75430;DHT22;64127;51.488;5.462;2023-02-26T14:19:43;15.00;47.40
75430;DHT22;64127;51.488;5.462;2023-02-26T14:25:29;14.90;47.40
75430;DHT22;64127;51.488;5.462;2023-02-26T14:34:03;15.50;46.60
75430;DHT22;64127;51.488;5.462;2023-02-26T14:39:57;15.90;46.40
75430;DHT22;64127;51.488;5.462;2023-02-26T14:42:50;16.20;46.10
75430;DHT22;64127;51.488;5.462;2023-02-26T14:45:43;16.40;45.70
75430;DHT22;64127;51.488;5.462;2023-02-26T14:48:17;16.60;45.30
75430;DHT22;64127;51.488;5.462;2023-02-26T14:51:15;16.90;45.90
75430;DHT22;64127;51.488;5.462;2023-02-26T15:00:52;16.80;44.30
75430;DHT22;64127;51.488;5.462;2023-02-26T15:18:32;17.50;42.10
75430;DHT22;64127;51.488;5.462;2023-02-26T15:21:30;17.90;41.70
75430;DHT22;64127;51.488;5.462;2023-02-26T15:24:04;18.40;41.10
75430;DHT22;64127;51.488;5.462;2023-02-26T15:26:52;18.70;41.10
75430;DHT22;64127;51.488;5.462;2023-02-26T15:29:32;18.80;40.40
75430;DHT22;64127;51.488;5.462;2023-02-26T15:32:26;18.80;40.30
75430;DHT22;64127;51.488;5.462;2023-02-26T15:35:21;18.80;39.60
75430;DHT22;64127;51.488;5.462;2023-02-26T15:37:55;18.60;39.60
75430;DHT22;64127;51.488;5.462;2023-02-26T15:40:32;18.70;40.40
75430;DHT22;64127;51.488;5.462;2023-02-26T15:43:08;18.70;39.40
75430;DHT22;64127;51.488;5.462;2023-02-26T15:45:45;18.80;39.30
75430;DHT22;64127;51.488;5.462;2023-02-26T15:48:34;18.80;39.20
75430;DHT22;64127;51.488;5.462;2023-02-26T15:51:12;18.80;39.00
75430;DHT22;64127;51.488;5.462;2023-02-26T15:53:49;18.70;38.80
75430;DHT22;64127;51.488;5.462;2023-02-26T15:56:25;18.50;38.60
75430;DHT22;64127;51.488;5.462;2023-02-26T15:59:20;18.30;38.50
75430;DHT22;64127;51.488;5.462;2023-02-26T16:02:00;18.10;38.40
75430;DHT22;64127;51.488;5.462;2023-02-26T16:04:34;18.00;38.70
75430;DHT22;64127;51.488;5.462;2023-02-26T16:07:09;17.90;38.60
75430;DHT22;64127;51.488;5.462;2023-02-26T16:09:49;17.70;38.50
75430;DHT22;64127;51.488;5.462;2023-02-26T16:12:33;17.60;38.60
75430;DHT22;64127;51.488;5.462;2023-02-26T16:15:16;17.50;38.60
75430;DHT22;64127;51.488;5.462;2023-02-26T16:17:54;17.40;38.70
75430;DHT22;64127;51.488;5.462;2023-02-26T16:20:36;17.30;38.80
75430;DHT22;64127;51.488;5.462;2023-02-26T16:23:22;17.50;39.00
75430;DHT22;64127;51.488;5.462;2023-02-26T16:26:01;17.60;39.00
75430;DHT22;64127;51.488;5.462;2023-02-26T16:28:40;17.70;39.10
75430;DHT22;64127;51.488;5.462;2023-02-26T16:31:26;17.70;39.10
75430;DHT22;64127;51.488;5.462;2023-02-26T16:34:04;17.70;39.20
75430;DHT22;64127;51.488;5.462;2023-02-26T16:36:53;17.60;39.20
75430;DHT22;64127;51.488;5.462;2023-02-26T16:39:29;17.30;39.40
75430;DHT22;64127;51.488;5.462;2023-02-26T16:42:09;17.00;39.80
75430;DHT22;64127;51.488;5.462;2023-02-26T16:44:48;16.60;39.90
75430;DHT22;64127;51.488;5.462;2023-02-26T16:47:24;16.10;40.40
75430;DHT22;64127;51.488;5.462;2023-02-26T16:50:01;15.50;40.90
75430;DHT22;64127;51.488;5.462;2023-02-26T16:52:33;14.60;41.30
75430;DHT22;64127;51.488;5.462;2023-02-26T16:55:05;13.70;41.80
75430;DHT22;64127;51.488;5.462;2023-02-26T16:57:44;12.80;42.70
75430;DHT22;64127;51.488;5.462;2023-02-26T17:00:22;12.10;43.60
75430;DHT22;64127;51.488;5.462;2023-02-26T17:03:14;11.50;44.50
75430;DHT22;64127;51.488;5.462;2023-02-26T17:06:07;11.10;45.00
75430;DHT22;64127;51.488;5.462;2023-02-26T17:08:59;10.80;45.50
75430;DHT22;64127;51.488;5.462;2023-02-26T17:11:37;10.50;46.00
75430;DHT22;64127;51.488;5.462;2023-02-26T17:14:24;10.30;46.40
75430;DHT22;64127;51.488;5.462;2023-02-26T17:16:56;10.10;46.70
75430;DHT22;64127;51.488;5.462;2023-02-26T17:19:28;10.00;47.10
75430;DHT22;64127;51.488;5.462;2023-02-26T17:22:00;9.80;48.30
75430;DHT22;64127;51.488;5.462;2023-02-26T17:24:36;9.70;48.50
75430;DHT22;64127;51.488;5.462;2023-02-26T17:27:17;9.60;48.80
75430;DHT22;64127;51.488;5.462;2023-02-26T17:29:58;9.50;49.10
75430;DHT22;64127;51.488;5.462;2023-02-26T17:32:31;9.40;49.40
75430;DHT22;64127;51.488;5.462;2023-02-26T17:35:04;9.40;49.80
75430;DHT22;64127;51.488;5.462;2023-02-26T17:37:37;9.30;50.20
75430;DHT22;64127;51.488;5.462;2023-02-26T17:40:26;9.20;51.20
75430;DHT22;64127;51.488;5.462;2023-02-26T17:43:03;9.20;51.50
75430;DHT22;64127;51.488;5.462;2023-02-26T17:45:37;9.10;51.40
75430;DHT22;64127;51.488;5.462;2023-02-26T17:48:13;8.90;51.30
75430;DHT22;64127;51.488;5.462;2023-02-26T17:50:49;8.90;51.50
75430;DHT22;64127;51.488;5.462;2023-02-26T17:53:24;8.80;51.70
75430;DHT22;64127;51.488;5.462;2023-02-26T17:56:04;8.70;51.80
75430;DHT22;64127;51.488;5.462;2023-02-26T17:58:43;8.70;51.90
75430;DHT22;64127;51.488;5.462;2023-02-26T18:01:16;8.60;52.10
75430;DHT22;64127;51.488;5.462;2023-02-26T18:03:49;8.60;52.10
75430;DHT22;64127;51.488;5.462;2023-02-26T18:06:22;8.50;52.00
75430;DHT22;64127;51.488;5.462;2023-02-26T18:08:55;8.50;52.50
75430;DHT22;64127;51.488;5.462;2023-02-26T18:11:27;8.40;52.60
75430;DHT22;64127;51.488;5.462;2023-02-26T18:14:00;8.40;53.00
75430;DHT22;64127;51.488;5.462;2023-02-26T18:16:36;8.30;53.00
75430;DHT22;64127;51.488;5.462;2023-02-26T18:19:12;8.30;53.20
75430;DHT22;64127;51.488;5.462;2023-02-26T18:21:45;8.20;53.40
75430;DHT22;64127;51.488;5.462;2023-02-26T18:24:17;8.10;53.50
75430;DHT22;64127;51.488;5.462;2023-02-26T18:26:49;8.10;53.90
75430;DHT22;64127;51.488;5.462;2023-02-26T18:29:22;8.00;53.90
75430;DHT22;64127;51.488;5.462;2023-02-26T18:31:53;8.00;54.20
75430;DHT22;64127;51.488;5.462;2023-02-26T18:34:26;7.90;54.40
75430;DHT22;64127;51.488;5.462;2023-02-26T18:36:58;7.90;54.70
75430;DHT22;64127;51.488;5.462;2023-02-26T18:39:30;7.80;54.80
75430;DHT22;64127;51.488;5.462;2023-02-26T18:42:04;7.80;55.00
75430;DHT22;64127;51.488;5.462;2023-02-26T18:44:37;7.70;55.20
75430;DHT22;64127;51.488;5.462;2023-02-26T18:47:09;7.70;55.40
75430;DHT22;64127;51.488;5.462;2023-02-26T18:49:42;7.60;55.60
75430;DHT22;64127;51.488;5.462;2023-02-26T18:52:14;7.60;55.70
75430;DHT22;64127;51.488;5.462;2023-02-26T18:54:46;7.50;55.70
75430;DHT22;64127;51.488;5.462;2023-02-26T18:57:18;7.50;56.00
75430;DHT22;64127;51.488;5.462;2023-02-26T18:59:50;7.50;56.30
75430;DHT22;64127;51.488;5.462;2023-02-26T19:02:22;7.50;56.50
75430;DHT22;64127;51.488;5.462;2023-02-26T19:04:54;7.50;56.70
75430;DHT22;64127;51.488;5.462;2023-02-26T19:07:26;7.50;56.80
75430;DHT22;64127;51.488;5.462;2023-02-26T19:09:58;7.50;56.80
75430;DHT22;64127;51.488;5.462;2023-02-26T19:12:32;7.40;56.90
75430;DHT22;64127;51.488;5.462;2023-02-26T19:15:06;7.40;57.00
75430;DHT22;64127;51.488;5.462;2023-02-26T19:17:40;7.40;57.00
75430;DHT22;64127;51.488;5.462;2023-02-26T19:20:13;7.40;57.10
75430;DHT22;64127;51.488;5.462;2023-02-26T19:22:45;7.40;57.30
75430;DHT22;64127;51.488;5.462;2023-02-26T19:25:17;7.40;57.40
75430;DHT22;64127;51.488;5.462;2023-02-26T19:27:54;7.40;57.60
75430;DHT22;64127;51.488;5.462;2023-02-26T19:30:27;7.40;57.70
75430;DHT22;64127;51.488;5.462;2023-02-26T19:32:59;7.40;57.90
75430;DHT22;64127;51.488;5.462;2023-02-26T19:35:32;7.30;58.10
75430;DHT22;64127;51.488;5.462;2023-02-26T19:38:04;7.30;58.20
75430;DHT22;64127;51.488;5.462;2023-02-26T19:40:36;7.20;58.40
75430;DHT22;64127;51.488;5.462;2023-02-26T19:43:09;7.10;58.60
75430;DHT22;64127;51.488;5.462;2023-02-26T19:45:41;7.10;58.90
75430;DHT22;64127;51.488;5.462;2023-02-26T19:48:13;7.00;59.20
75430;DHT22;64127;51.488;5.462;2023-02-26T19:50:45;7.00;59.60